createdAt,value
2017-10-16T00:01:26.294Z,101468.30
2017-10-16T00:03:55.419Z,101460.16
2017-10-16T00:06:23.762Z,101468.70
2017-10-16T00:08:52.846Z,101465.52
2017-10-16T00:11:21.977Z,101463.49
2017-10-16T00:13:50.282Z,101462.80
2017-10-16T00:16:19.375Z,101469.23
2017-10-16T00:18:47.685Z,101459.10
2017-10-16T00:21:16.014Z,101465.58
2017-10-16T00:23:44.327Z,101456.61
2017-10-16T00:26:12.642Z,101461.14
2017-10-16T00:28:40.960Z,101458.95
2017-10-16T00:31:09.274Z,101457.15
2017-10-16T00:33:37.590Z,101460.98
2017-10-16T00:36:05.916Z,101454.01
2017-10-16T00:38:34.240Z,101451.61
2017-10-16T00:41:02.558Z,101450.53
2017-10-16T00:43:30.879Z,101448.75
2017-10-16T00:45:59.969Z,101449.05
2017-10-16T00:48:29.049Z,101449.67
2017-10-16T00:50:57.354Z,101447.09
2017-10-16T00:53:25.674Z,101444.83
2017-10-16T00:55:54.019Z,101451.33
2017-10-16T00:58:22.353Z,101447.61
2017-10-16T01:00:50.666Z,101452.73
2017-10-16T01:03:18.988Z,101455.42
2017-10-16T01:05:47.293Z,101451.92
2017-10-16T01:08:15.629Z,101448.05
2017-10-16T01:10:43.943Z,101446.30
2017-10-16T01:13:12.249Z,101453.81
2017-10-16T01:15:41.338Z,101451.66
2017-10-16T01:18:10.467Z,101447.81
2017-10-16T01:20:38.777Z,101446.48
2017-10-16T01:23:07.094Z,101443.91
2017-10-16T01:25:36.190Z,101445.42
2017-10-16T01:28:05.925Z,101446.76
2017-10-16T01:30:34.240Z,101441.23
2017-10-16T01:33:02.554Z,101443.68
2017-10-16T01:35:31.629Z,101441.97
2017-10-16T01:37:59.936Z,101442.20
2017-10-16T01:40:28.254Z,101438.09
2017-10-16T01:42:56.579Z,101440.63
2017-10-16T01:45:25.658Z,101435.72
2017-10-16T01:47:53.986Z,101433.83
2017-10-16T01:50:22.297Z,101430.78
2017-10-16T01:52:50.605Z,101427.95
2017-10-16T01:55:19.669Z,101432.97
2017-10-16T01:57:47.994Z,101429.81
2017-10-16T02:00:16.306Z,101437.59
2017-10-16T02:02:44.638Z,101432.68
2017-10-16T02:05:13.723Z,101429.84
2017-10-16T02:07:42.054Z,101426.20
2017-10-16T02:10:10.362Z,101431.88
2017-10-16T02:12:38.674Z,101428.50
2017-10-16T02:15:06.985Z,101434.59
2017-10-16T02:17:35.297Z,101432.72
2017-10-16T02:20:04.391Z,101429.80
2017-10-16T02:22:32.739Z,101436.73
2017-10-16T02:25:01.092Z,101436.26
2017-10-16T02:27:29.410Z,101440.80
2017-10-16T02:29:57.720Z,101442.68
2017-10-16T02:32:26.831Z,101438.10
2017-10-16T02:34:55.152Z,101434.16
2017-10-16T02:37:23.533Z,101439.08
2017-10-16T02:39:51.845Z,101445.50
2017-10-16T02:42:20.943Z,101445.33
2017-10-16T02:44:50.021Z,101446.84
2017-10-16T02:47:19.015Z,101452.73
2017-10-16T02:49:48.193Z,101453.44
2017-10-16T02:52:16.535Z,101444.44
2017-10-16T02:54:44.854Z,101452.98
2017-10-16T02:57:13.154Z,101446.21
2017-10-16T02:59:42.235Z,101449.95
2017-10-16T03:02:11.342Z,101448.48
2017-10-16T03:04:39.659Z,101449.44
2017-10-16T03:07:07.966Z,101447.26
2017-10-16T03:09:36.286Z,101449.58
2017-10-16T03:12:05.349Z,101450.20
2017-10-16T03:14:33.660Z,101452.81
2017-10-16T03:17:02.733Z,101453.94
2017-10-16T03:19:31.065Z,101452.66
2017-10-16T03:21:59.365Z,101449.41
2017-10-16T03:24:27.714Z,101443.47
2017-10-16T03:26:56.031Z,101441.37
2017-10-16T03:29:24.341Z,101444.52
2017-10-16T03:31:53.422Z,101445.58
2017-10-16T03:34:22.493Z,101446.39
2017-10-16T03:36:50.817Z,101445.84
2017-10-16T03:39:19.133Z,101446.21
2017-10-16T03:41:47.444Z,101445.19
2017-10-16T03:44:16.574Z,101446.22
2017-10-16T03:46:44.897Z,101442.27
2017-10-16T03:49:13.198Z,101440.22
2017-10-16T03:51:41.514Z,101440.66
2017-10-16T03:54:09.817Z,101443.31
2017-10-16T03:56:38.125Z,101447.19
2017-10-16T03:59:06.437Z,101449.27
2017-10-16T04:01:34.737Z,101439.58
2017-10-16T04:04:03.063Z,101447.21
2017-10-16T04:06:32.135Z,101452.10
2017-10-16T04:09:00.461Z,101462.33
2017-10-16T04:11:28.765Z,101466.42
2017-10-16T04:13:57.084Z,101458.91
2017-10-16T04:16:25.382Z,101464.03
2017-10-16T04:18:54.473Z,101462.88
2017-10-16T04:21:23.539Z,101458.91
2017-10-16T04:23:51.864Z,101464.23
2017-10-16T04:26:20.180Z,101466.12
2017-10-16T04:28:48.512Z,101456.19
2017-10-16T04:31:16.813Z,101463.50
2017-10-16T04:33:45.130Z,101465.58
2017-10-16T04:36:13.429Z,101472.19
2017-10-16T04:38:42.493Z,101464.56
2017-10-16T04:41:10.816Z,101470.59
2017-10-16T04:43:39.132Z,101472.78
2017-10-16T04:46:07.468Z,101474.80
2017-10-16T04:48:36.544Z,101472.50
2017-10-16T04:51:05.626Z,101471.66
2017-10-16T04:53:33.935Z,101474.38
2017-10-16T04:56:03.029Z,101478.98
2017-10-16T04:58:31.344Z,101478.78
2017-10-16T05:00:59.655Z,101473.87
2017-10-16T05:03:27.962Z,101471.17
2017-10-16T05:05:57.056Z,101471.70
2017-10-16T05:08:26.125Z,101465.22
2017-10-16T05:10:54.448Z,101462.69
2017-10-16T05:13:22.756Z,101464.45
2017-10-16T05:15:51.089Z,101465.71
2017-10-16T05:18:19.396Z,101467.71
2017-10-16T05:20:47.715Z,101469.60
2017-10-16T05:23:16.047Z,101472.08
2017-10-16T05:25:44.357Z,101470.83
2017-10-16T05:28:12.678Z,101469.68
2017-10-16T05:30:40.976Z,101472.12
2017-10-16T05:33:09.287Z,101467.92
2017-10-16T05:35:37.600Z,101468.02
2017-10-16T05:38:05.921Z,101470.74
2017-10-16T05:40:34.251Z,101466.56
2017-10-16T05:43:03.346Z,101463.13
2017-10-16T05:45:32.506Z,101462.36
2017-10-16T05:48:00.889Z,101460.98
2017-10-16T05:50:29.213Z,101473.20
2017-10-16T05:52:57.529Z,101474.47
2017-10-16T05:55:25.913Z,101476.12
2017-10-16T05:57:54.399Z,101475.60
2017-10-16T06:00:22.712Z,101478.84
2017-10-16T06:02:51.796Z,101487.40
2017-10-16T06:05:20.964Z,101494.08
2017-10-16T06:07:49.281Z,101497.56
2017-10-16T06:10:18.353Z,101491.47
2017-10-16T06:12:46.693Z,101501.28
2017-10-16T06:15:14.989Z,101492.77
2017-10-16T06:17:43.298Z,101496.61
2017-10-16T06:20:11.609Z,101495.13
2017-10-16T06:22:39.905Z,101497.19
2017-10-16T06:25:08.221Z,101500.64
2017-10-16T06:27:36.522Z,101493.80
2017-10-16T06:30:05.608Z,101503.50
2017-10-16T06:32:34.677Z,101508.88
2017-10-16T06:35:02.998Z,101510.59
2017-10-16T06:37:31.301Z,101512.41
2017-10-16T06:39:59.624Z,101510.80
2017-10-16T06:42:27.926Z,101513.67
2017-10-16T06:44:56.246Z,101519.56
2017-10-16T06:47:25.328Z,101525.31
2017-10-16T06:49:53.645Z,101523.95
2017-10-16T06:52:21.957Z,101522.77
2017-10-16T06:54:50.260Z,101526.48
2017-10-16T06:57:19.413Z,101522.79
2017-10-16T06:59:48.486Z,101527.21
2017-10-16T07:02:16.813Z,101529.28
2017-10-16T07:04:45.113Z,101522.44
2017-10-16T07:07:13.424Z,101521.02
2017-10-16T07:09:41.730Z,101525.34
2017-10-16T07:12:10.868Z,101525.42
2017-10-16T07:14:39.183Z,101516.70
2017-10-16T07:17:08.294Z,101524.02
2017-10-16T07:19:36.605Z,101523.16
2017-10-16T07:22:04.921Z,101524.77
2017-10-16T07:24:33.225Z,101532.98
2017-10-16T07:27:02.322Z,101527.87
2017-10-16T07:29:31.386Z,101532.50
2017-10-16T07:31:59.726Z,101535.23
2017-10-16T07:34:28.038Z,101537.27
2017-10-16T07:36:56.354Z,101531.84
2017-10-16T07:39:25.425Z,101527.02
2017-10-16T07:41:53.737Z,101530.42
2017-10-16T07:44:22.045Z,101527.90
2017-10-16T07:46:50.347Z,101528.52
2017-10-16T07:49:18.662Z,101530.34
2017-10-16T07:51:46.973Z,101541.73
2017-10-16T07:54:15.285Z,101535.20
2017-10-16T07:56:43.581Z,101538.23
2017-10-16T07:59:12.665Z,101531.66
2017-10-16T08:01:41.733Z,101523.58
2017-10-16T08:04:10.049Z,101524.16
2017-10-16T08:06:39.110Z,101525.12
2017-10-16T08:09:07.437Z,101532.84
2017-10-16T08:11:35.857Z,101535.96
2017-10-16T08:14:04.179Z,101542.88
2017-10-16T08:16:33.251Z,101541.87
2017-10-16T08:19:01.993Z,101540.27
2017-10-16T08:21:30.316Z,101542.49
2017-10-16T08:23:58.938Z,101545.84
2017-10-16T08:26:27.253Z,101544.77
2017-10-16T08:28:55.561Z,101547.56
2017-10-16T08:31:23.865Z,101540.30
2017-10-16T08:33:52.193Z,101544.03
2017-10-16T08:36:20.497Z,101544.45
2017-10-16T08:38:49.567Z,101548.02
2017-10-16T08:41:18.645Z,101539.70
2017-10-16T08:43:46.957Z,101542.72
2017-10-16T08:46:15.273Z,101547.36
2017-10-16T08:48:43.570Z,101549.63
2017-10-16T08:51:11.884Z,101546.80
2017-10-16T08:53:40.185Z,101545.16
2017-10-16T08:56:09.269Z,101556.78
2017-10-16T08:58:38.337Z,101548.06
2017-10-16T09:01:06.654Z,101556.98
2017-10-16T09:03:35.729Z,101550.58
2017-10-16T09:06:04.046Z,101548.63
2017-10-16T09:08:32.357Z,101549.80
2017-10-16T09:11:00.661Z,101555.28
2017-10-16T09:13:28.957Z,101553.48
2017-10-16T09:15:58.033Z,101556.00
2017-10-16T09:18:26.332Z,101565.54
2017-10-16T09:20:54.641Z,101558.06
2017-10-16T09:23:22.949Z,101564.73
2017-10-16T09:25:51.257Z,101566.44
2017-10-16T09:28:20.337Z,101569.75
2017-10-16T09:30:48.645Z,101571.50
2017-10-16T09:33:16.953Z,101568.47
2017-10-16T09:35:45.259Z,101574.95
2017-10-16T09:38:13.578Z,101577.00
2017-10-16T09:40:41.881Z,101578.50
2017-10-16T09:43:10.187Z,101560.54
2017-10-16T09:45:38.487Z,101559.91
2017-10-16T09:48:07.575Z,101552.60
2017-10-16T09:50:35.865Z,101553.27
2017-10-16T09:53:04.937Z,101549.56
2017-10-16T09:55:33.237Z,101553.95
2017-10-16T09:58:02.309Z,101549.27
2017-10-16T10:00:30.603Z,101548.23
2017-10-16T10:02:59.665Z,101541.66
2017-10-16T10:05:27.976Z,101553.39
2017-10-16T10:07:57.041Z,101540.70
2017-10-16T10:10:25.350Z,101542.13
2017-10-16T10:12:54.456Z,101550.25
2017-10-16T10:15:23.533Z,101539.98
2017-10-16T10:17:53.503Z,101543.85
2017-10-16T10:20:21.817Z,101551.78
2017-10-16T10:22:50.109Z,101548.38
2017-10-16T10:25:19.188Z,101543.24
2017-10-16T10:27:47.497Z,101543.97
2017-10-16T10:30:15.804Z,101549.55
2017-10-16T10:32:44.102Z,101553.28
2017-10-16T10:35:12.412Z,101546.95
2017-10-16T10:37:41.473Z,101552.32
2017-10-16T10:40:09.780Z,101552.96
2017-10-16T10:42:39.477Z,101543.16
2017-10-16T10:45:07.798Z,101549.75
2017-10-16T10:47:36.093Z,101546.91
2017-10-16T10:50:04.404Z,101541.87
2017-10-16T10:52:32.709Z,101551.03
2017-10-16T10:55:01.774Z,101544.08
2017-10-16T10:57:30.085Z,101550.01
2017-10-16T10:59:59.145Z,101540.56
2017-10-16T11:02:27.457Z,101538.70
2017-10-16T11:04:55.761Z,101538.56
2017-10-16T11:07:24.081Z,101533.82
2017-10-16T11:09:52.383Z,101536.54
2017-10-16T11:12:21.507Z,101529.91
2017-10-16T11:14:49.806Z,101530.19
2017-10-16T11:17:18.131Z,101530.62
2017-10-16T11:19:47.193Z,101534.42
2017-10-16T11:22:15.509Z,101529.34
2017-10-16T11:24:44.577Z,101525.95
2017-10-16T11:27:12.889Z,101529.09
2017-10-16T11:29:41.201Z,101527.45
2017-10-16T11:32:09.525Z,101524.72
2017-10-16T11:34:38.590Z,101519.88
2017-10-16T11:37:06.893Z,101514.34
2017-10-16T11:39:36.020Z,101515.66
2017-10-16T11:42:04.324Z,101517.98
2017-10-16T11:44:32.625Z,101517.08
2017-10-16T11:47:00.926Z,101521.03
2017-10-16T11:49:30.012Z,101526.38
2017-10-16T11:51:58.310Z,101524.63
2017-10-16T11:54:26.624Z,101522.71
2017-10-16T11:56:54.930Z,101522.78
2017-10-16T11:59:23.233Z,101518.52
2017-10-16T12:01:52.360Z,101520.52
2017-10-16T12:04:20.684Z,101528.83
2017-10-16T12:06:49.765Z,101526.84
2017-10-16T12:09:18.084Z,101522.02
2017-10-16T12:11:47.149Z,101529.05
2017-10-16T12:14:15.465Z,101520.80
2017-10-16T12:16:43.870Z,101527.25
2017-10-16T12:19:12.179Z,101521.83
2017-10-16T12:21:40.489Z,101518.94
2017-10-16T12:24:09.614Z,101522.87
2017-10-16T12:26:37.954Z,101520.53
2017-10-16T12:29:07.021Z,101523.94
2017-10-16T12:31:35.339Z,101519.76
2017-10-16T12:34:03.650Z,101515.45
2017-10-16T12:36:31.959Z,101514.25
2017-10-16T12:39:00.253Z,101513.59
2017-10-16T12:41:29.329Z,101516.60
2017-10-16T12:43:57.622Z,101516.48
2017-10-16T12:46:25.947Z,101523.05
2017-10-16T12:48:54.242Z,101517.95
2017-10-16T12:51:22.548Z,101516.33
2017-10-16T12:53:50.849Z,101518.92
2017-10-16T12:56:19.933Z,101515.88
2017-10-16T12:58:49.005Z,101515.99
2017-10-16T13:01:17.313Z,101514.84
2017-10-16T13:03:46.439Z,101512.52
2017-10-16T13:06:14.737Z,101517.11
2017-10-16T13:08:43.049Z,101517.52
2017-10-16T13:11:12.114Z,101516.39
2017-10-16T13:13:40.421Z,101516.53
2017-10-16T13:16:08.753Z,101513.61
2017-10-16T13:18:37.066Z,101519.59
2017-10-16T13:21:05.361Z,101522.72
2017-10-16T13:23:34.431Z,101517.45
2017-10-16T13:26:02.732Z,101513.28
2017-10-16T13:28:31.805Z,101510.91
2017-10-16T13:31:00.107Z,101512.23
2017-10-16T13:33:29.206Z,101516.17
2017-10-16T13:35:58.271Z,101516.06
2017-10-16T13:38:26.579Z,101514.25
2017-10-16T13:40:55.653Z,101514.54
2017-10-16T13:43:23.948Z,101515.13
2017-10-16T13:45:52.286Z,101519.14
2017-10-16T13:48:20.613Z,101512.70
2017-10-16T13:50:48.926Z,101518.66
2017-10-16T13:53:17.216Z,101520.54
2017-10-16T13:55:45.533Z,101520.58
2017-10-16T13:58:14.622Z,101525.88
2017-10-16T14:00:43.721Z,101515.48
2017-10-16T14:03:12.817Z,101523.09
2017-10-16T14:05:41.889Z,101513.52
2017-10-16T14:08:10.195Z,101517.84
2017-10-16T14:10:39.281Z,101514.77
2017-10-16T14:13:08.341Z,101512.91
2017-10-16T14:15:36.648Z,101509.62
2017-10-16T14:18:04.945Z,101514.36
2017-10-16T14:20:33.262Z,101505.11
2017-10-16T14:23:01.634Z,101501.76
2017-10-16T14:25:29.928Z,101505.85
2017-10-16T14:27:58.237Z,101497.94
2017-10-16T14:30:26.543Z,101499.03
2017-10-16T14:32:55.629Z,101503.48
2017-10-16T14:35:23.921Z,101501.05
2017-10-16T14:37:52.997Z,101507.45
2017-10-16T14:40:21.299Z,101506.27
2017-10-16T14:42:50.417Z,101507.00
2017-10-16T14:45:18.738Z,101507.67
2017-10-16T14:47:47.055Z,101503.00
2017-10-16T14:50:15.357Z,101508.12
2017-10-16T14:52:43.668Z,101505.06
2017-10-16T14:55:11.965Z,101503.63
2017-10-16T14:57:41.077Z,101505.65
2017-10-16T15:00:09.378Z,101508.96
2017-10-16T15:02:37.701Z,101503.16
2017-10-16T15:05:06.002Z,101500.45
2017-10-16T15:07:35.077Z,101498.41
2017-10-16T15:10:03.382Z,101494.92
2017-10-16T15:12:31.692Z,101493.23
2017-10-16T15:14:59.987Z,101495.78
2017-10-16T15:17:28.309Z,101494.80
2017-10-16T15:19:57.369Z,101491.72
2017-10-16T15:22:25.690Z,101488.28
2017-10-16T15:24:53.985Z,101485.89
2017-10-16T15:27:22.296Z,101483.74
2017-10-16T15:29:50.597Z,101479.45
2017-10-16T15:32:19.668Z,101479.97
2017-10-16T15:34:47.980Z,101479.30
2017-10-16T15:37:17.768Z,101476.42
2017-10-16T15:39:46.077Z,101479.91
2017-10-16T15:42:15.149Z,101474.88
2017-10-16T15:44:43.456Z,101471.61
2017-10-16T15:47:11.756Z,101473.17
2017-10-16T15:49:40.875Z,101477.89
2017-10-16T15:52:09.178Z,101476.25
2017-10-16T15:54:38.259Z,101474.48
2017-10-16T15:57:06.557Z,101472.34
2017-10-16T15:59:35.637Z,101475.32
2017-10-16T16:02:03.938Z,101477.61
2017-10-16T16:04:33.024Z,101472.16
2017-10-16T16:07:02.093Z,101476.94
2017-10-16T16:09:30.393Z,101472.87
2017-10-16T16:11:59.484Z,101471.95
2017-10-16T16:14:27.793Z,101473.08
2017-10-16T16:16:56.113Z,101476.40
2017-10-16T16:19:24.421Z,101466.33
2017-10-16T16:21:53.519Z,101468.71
2017-10-16T16:24:22.593Z,101467.91
2017-10-16T16:26:50.911Z,101462.12
2017-10-16T16:29:19.213Z,101465.72
2017-10-16T16:31:47.533Z,101457.19
2017-10-16T16:34:15.837Z,101463.52
2017-10-16T16:36:44.156Z,101459.22
2017-10-16T16:39:12.474Z,101454.80
2017-10-16T16:41:41.560Z,101458.09
2017-10-16T16:44:10.776Z,101460.81
2017-10-16T16:46:39.861Z,101460.23
2017-10-16T16:49:08.933Z,101466.28
2017-10-16T16:51:37.261Z,101469.70
2017-10-16T16:54:05.578Z,101468.30
2017-10-16T16:56:33.888Z,101477.52
2017-10-16T16:59:02.202Z,101479.00
2017-10-16T17:01:30.497Z,101476.34
2017-10-16T17:03:59.056Z,101474.78
2017-10-16T17:06:27.390Z,101473.33
2017-10-16T17:08:55.709Z,101468.66
2017-10-16T17:11:24.009Z,101467.31
2017-10-16T17:13:52.338Z,101463.23
2017-10-16T17:16:21.405Z,101463.09
2017-10-16T17:18:49.733Z,101459.81
2017-10-16T17:21:18.049Z,101460.08
2017-10-16T17:23:46.386Z,101463.75
2017-10-16T17:26:14.705Z,101461.08
2017-10-16T17:28:43.009Z,101468.58
2017-10-16T17:31:11.325Z,101471.09
2017-10-16T17:33:39.630Z,101468.84
2017-10-16T17:36:07.948Z,101466.23
2017-10-16T17:38:37.050Z,101460.34
2017-10-16T17:41:06.128Z,101465.88
2017-10-16T17:43:34.435Z,101465.66
2017-10-16T17:46:03.514Z,101469.71
2017-10-16T17:48:32.589Z,101472.94
2017-10-16T17:51:00.902Z,101468.42
2017-10-16T17:53:29.966Z,101475.35
2017-10-16T17:55:58.278Z,101472.66
2017-10-16T17:58:26.581Z,101470.27
2017-10-16T18:00:54.897Z,101472.16
2017-10-16T18:03:23.203Z,101468.30
2017-10-16T18:05:51.544Z,101470.49
2017-10-16T18:08:19.849Z,101471.08
2017-10-16T18:10:48.939Z,101472.85
2017-10-16T18:13:18.017Z,101475.92
2017-10-16T18:15:46.329Z,101475.32
2017-10-16T18:18:15.397Z,101476.69
2017-10-16T18:20:44.124Z,101472.71
2017-10-16T18:23:12.460Z,101466.52
2017-10-16T18:25:41.541Z,101466.14
2017-10-16T18:28:09.867Z,101469.45
2017-10-16T18:30:38.165Z,101460.62
2017-10-16T18:33:06.481Z,101461.19
2017-10-16T18:35:34.795Z,101458.81
2017-10-16T18:38:03.126Z,101455.09
2017-10-16T18:40:31.433Z,101454.95
2017-10-16T18:43:00.513Z,101459.36
2017-10-16T18:45:28.816Z,101462.68
2017-10-16T18:47:57.897Z,101457.31
2017-10-16T18:50:26.196Z,101455.23
2017-10-16T18:52:54.513Z,101458.35
2017-10-16T18:55:22.826Z,101451.56
2017-10-16T18:57:51.142Z,101452.92
2017-10-16T19:00:19.459Z,101450.84
2017-10-16T19:02:47.785Z,101447.20
2017-10-16T19:05:16.093Z,101452.92
2017-10-16T19:07:44.428Z,101452.52
2017-10-16T19:10:13.498Z,101455.93
2017-10-16T19:12:41.809Z,101456.05
2017-10-16T19:15:10.114Z,101451.14
2017-10-16T19:17:38.433Z,101453.14
2017-10-16T19:20:06.734Z,101450.54
2017-10-16T19:22:35.806Z,101443.02
2017-10-16T19:25:04.121Z,101445.44
2017-10-16T19:27:32.426Z,101438.55
2017-10-16T19:30:00.887Z,101449.83
2017-10-16T19:32:29.187Z,101441.37
2017-10-16T19:34:57.525Z,101444.13
2017-10-16T19:37:25.845Z,101447.84
2017-10-16T19:39:54.152Z,101443.73
2017-10-16T19:42:22.449Z,101450.66
2017-10-16T19:44:51.529Z,101459.09
2017-10-16T19:47:19.830Z,101461.66
2017-10-16T19:49:48.154Z,101458.53
2017-10-16T19:52:16.457Z,101455.06
2017-10-16T19:54:44.789Z,101448.27
2017-10-16T19:57:13.094Z,101447.48
2017-10-16T19:59:41.414Z,101443.13
2017-10-16T20:02:09.731Z,101444.09
2017-10-16T20:04:38.046Z,101437.92
2017-10-16T20:07:06.345Z,101446.66
2017-10-16T20:09:34.669Z,101454.34
2017-10-16T20:12:02.981Z,101448.58
2017-10-16T20:14:32.064Z,101450.94
2017-10-16T20:17:00.362Z,101455.65
2017-10-16T20:19:28.669Z,101454.37
2017-10-16T20:21:56.993Z,101449.09
2017-10-16T20:24:25.303Z,101454.50
2017-10-16T20:26:53.622Z,101451.62
2017-10-16T20:29:22.693Z,101454.91
2017-10-16T20:31:51.006Z,101445.34
2017-10-16T20:34:19.309Z,101454.57
2017-10-16T20:36:48.389Z,101451.62
2017-10-16T20:39:16.701Z,101451.70
2017-10-16T20:41:45.777Z,101453.28
2017-10-16T20:44:14.077Z,101451.77
2017-10-16T20:46:42.394Z,101455.06
2017-10-16T20:49:10.693Z,101458.17
2017-10-16T20:51:39.006Z,101453.33
2017-10-16T20:54:07.304Z,101454.56
2017-10-16T20:56:35.613Z,101451.09
2017-10-16T20:59:03.938Z,101455.89
2017-10-16T21:01:32.254Z,101457.27
2017-10-16T21:04:00.573Z,101451.42
2017-10-16T21:06:29.663Z,101453.34
2017-10-16T21:08:57.980Z,101454.35
2017-10-16T21:11:26.300Z,101460.25
2017-10-16T21:13:54.629Z,101458.78
2017-10-16T21:16:22.933Z,101461.16
2017-10-16T21:18:51.245Z,101463.44
2017-10-16T21:21:19.548Z,101457.54
2017-10-16T21:23:48.629Z,101458.82
2017-10-16T21:26:17.705Z,101460.55
2017-10-16T21:28:46.030Z,101455.58
2017-10-16T21:31:14.326Z,101456.53
2017-10-16T21:33:42.641Z,101453.34
2017-10-16T21:36:10.948Z,101452.34
2017-10-16T21:38:39.269Z,101450.01
2017-10-16T21:41:07.628Z,101444.12
2017-10-16T21:43:35.929Z,101444.25
2017-10-16T21:46:04.250Z,101438.95
2017-10-16T21:48:33.318Z,101444.06
2017-10-16T21:51:01.632Z,101443.30
2017-10-16T21:53:29.936Z,101451.20
2017-10-16T21:55:58.253Z,101444.53
2017-10-16T21:58:26.553Z,101438.31
2017-10-16T22:00:55.632Z,101437.61
2017-10-16T22:03:23.945Z,101434.59
2017-10-16T22:05:52.273Z,101440.92
2017-10-16T22:08:20.584Z,101438.78
2017-10-16T22:10:49.661Z,101436.94
2017-10-16T22:13:18.740Z,101435.75
2017-10-16T22:15:47.062Z,101440.13
2017-10-16T22:18:15.369Z,101439.11
2017-10-16T22:20:43.681Z,101441.06
2017-10-16T22:23:12.006Z,101439.86
2017-10-16T22:25:40.321Z,101433.81
2017-10-16T22:28:08.637Z,101428.59
2017-10-16T22:30:37.709Z,101428.27
2017-10-16T22:33:06.032Z,101442.65
2017-10-16T22:35:34.338Z,101439.27
2017-10-16T22:38:02.676Z,101440.92
2017-10-16T22:40:30.977Z,101434.95
2017-10-16T22:42:59.293Z,101434.34
2017-10-16T22:45:27.597Z,101434.78
2017-10-16T22:47:56.688Z,101432.40
2017-10-16T22:50:25.759Z,101435.88
2017-10-16T22:52:58.510Z,101430.36
2017-10-16T22:55:26.837Z,101427.70
2017-10-16T22:57:55.930Z,101426.34
2017-10-16T23:00:25.008Z,101432.36
2017-10-16T23:02:53.331Z,101431.97
2017-10-16T23:05:21.658Z,101428.54
2017-10-16T23:07:49.984Z,101435.32
2017-10-16T23:10:18.292Z,101430.47
2017-10-16T23:12:46.604Z,101427.88
2017-10-16T23:15:14.913Z,101428.12
2017-10-16T23:17:43.218Z,101420.88
2017-10-16T23:20:11.534Z,101407.17
2017-10-16T23:22:39.854Z,101428.45
2017-10-16T23:25:08.165Z,101414.12
2017-10-16T23:27:36.465Z,101417.64
2017-10-16T23:30:04.781Z,101419.23
2017-10-16T23:32:33.108Z,101416.16
2017-10-16T23:35:01.442Z,101413.46
2017-10-16T23:37:29.751Z,101410.19
2017-10-16T23:39:58.086Z,101410.00
2017-10-16T23:42:26.398Z,101403.89
2017-10-16T23:44:54.719Z,101402.87
2017-10-16T23:47:23.785Z,101400.14
2017-10-16T23:49:52.097Z,101403.42
2017-10-16T23:52:21.224Z,101401.16
2017-10-16T23:54:49.537Z,101402.13
2017-10-16T23:57:18.193Z,101408.37
2017-10-16T23:59:46.501Z,101413.47
